sensor_id;sensor_type;location;lat;lon;timestamp;pressure;altitude;pressure_sealevel;temperature;humidity
63132;BME280;49234;35.600;139.358;2022-08-21T00:00:44;99170.47;;;28.27;52.17
63132;BME280;49234;35.600;139.358;2022-08-21T00:03:13;99171.94;;;29.09;50.97
63132;BME280;49234;35.600;139.358;2022-08-21T00:05:49;99171.51;;;27.88;52.79
63132;BME280;49234;35.600;139.358;2022-08-21T00:08:20;99176.60;;;28.15;52.79
63132;BME280;49234;35.600;139.358;2022-08-21T00:10:49;99182.56;;;28.38;52.32
63132;BME280;49234;35.600;139.358;2022-08-21T00:13:18;99173.84;;;28.51;52.14
63132;BME280;49234;35.600;139.358;2022-08-21T00:15:49;99174.85;;;28.74;51.21
63132;BME280;49234;35.600;139.358;2022-08-21T00:18:18;99182.12;;;28.31;52.34
63132;BME280;49234;35.600;139.358;2022-08-21T00:20:48;99188.10;;;28.97;50.88
63132;BME280;49234;35.600;139.358;2022-08-21T00:23:17;99193.00;;;27.97;52.62
63132;BME280;49234;35.600;139.358;2022-08-21T00:25:46;99194.57;;;28.09;51.96
63132;BME280;49234;35.600;139.358;2022-08-21T00:28:16;99191.68;;;27.94;52.96
63132;BME280;49234;35.600;139.358;2022-08-21T00:30:45;99189.84;;;28.31;52.24
63132;BME280;49234;35.600;139.358;2022-08-21T00:33:15;99188.89;;;28.72;51.37
63132;BME280;49234;35.600;139.358;2022-08-21T00:35:44;99190.39;;;28.39;51.95
63132;BME280;49234;35.600;139.358;2022-08-21T00:38:13;99185.62;;;28.71;51.49
63132;BME280;49234;35.600;139.358;2022-08-21T00:40:47;99189.32;;;29.00;51.10
63132;BME280;49234;35.600;139.358;2022-08-21T00:43:19;99193.27;;;28.56;51.97
63132;BME280;49234;35.600;139.358;2022-08-21T00:45:49;99201.08;;;28.89;51.27
63132;BME280;49234;35.600;139.358;2022-08-21T00:48:18;99204.79;;;28.89;51.63
63132;BME280;49234;35.600;139.358;2022-08-21T00:50:52;99211.06;;;28.19;53.08
63132;BME280;49234;35.600;139.358;2022-08-21T00:53:24;99211.93;;;28.79;51.71
63132;BME280;49234;35.600;139.358;2022-08-21T00:55:53;99214.62;;;29.63;50.05
63132;BME280;49234;35.600;139.358;2022-08-21T00:58:24;99210.79;;;29.57;50.34
63132;BME280;49234;35.600;139.358;2022-08-21T01:00:54;99208.34;;;28.98;51.97
63132;BME280;49234;35.600;139.358;2022-08-21T01:03:25;99210.50;;;29.20;50.54
63132;BME280;49234;35.600;139.358;2022-08-21T01:05:54;99210.57;;;28.82;51.45
63132;BME280;49234;35.600;139.358;2022-08-21T01:08:25;99214.46;;;29.71;49.17
63132;BME280;49234;35.600;139.358;2022-08-21T01:10:54;99214.79;;;29.30;50.71
63132;BME280;49234;35.600;139.358;2022-08-21T01:13:24;99216.05;;;29.41;50.14
63132;BME280;49234;35.600;139.358;2022-08-21T01:15:56;99213.02;;;28.44;51.53
63132;BME280;49234;35.600;139.358;2022-08-21T01:18:27;99214.59;;;30.08;48.88
63132;BME280;49234;35.600;139.358;2022-08-21T01:21:07;99216.21;;;29.64;49.74
63132;BME280;49234;35.600;139.358;2022-08-21T01:23:37;99211.10;;;29.38;49.97
63132;BME280;49234;35.600;139.358;2022-08-21T01:26:07;99213.88;;;29.03;50.71
63132;BME280;49234;35.600;139.358;2022-08-21T01:28:39;99218.67;;;28.46;52.18
63132;BME280;49234;35.600;139.358;2022-08-21T01:31:11;99218.83;;;28.10;52.49
63132;BME280;49234;35.600;139.358;2022-08-21T01:33:40;99220.12;;;29.11;50.49
63132;BME280;49234;35.600;139.358;2022-08-21T01:36:09;99220.90;;;29.49;49.85
63132;BME280;49234;35.600;139.358;2022-08-21T01:38:38;99221.46;;;28.54;52.03
63132;BME280;49234;35.600;139.358;2022-08-21T01:41:07;99218.58;;;28.78;49.79
63132;BME280;49234;35.600;139.358;2022-08-21T01:43:36;99217.96;;;29.76;48.88
63132;BME280;49234;35.600;139.358;2022-08-21T01:46:05;99213.80;;;29.05;49.22
63132;BME280;49234;35.600;139.358;2022-08-21T01:48:35;99215.07;;;29.33;48.47
63132;BME280;49234;35.600;139.358;2022-08-21T01:51:05;99214.71;;;30.07;48.43
63132;BME280;49234;35.600;139.358;2022-08-21T01:53:35;99213.45;;;29.05;50.31
63132;BME280;49234;35.600;139.358;2022-08-21T01:56:08;99212.99;;;29.80;49.27
63132;BME280;49234;35.600;139.358;2022-08-21T01:58:38;99211.57;;;29.37;49.88
63132;BME280;49234;35.600;139.358;2022-08-21T02:01:09;99217.80;;;29.70;49.32
63132;BME280;49234;35.600;139.358;2022-08-21T02:03:39;99213.49;;;29.50;49.55
63132;BME280;49234;35.600;139.358;2022-08-21T02:06:11;99211.85;;;30.01;47.84
63132;BME280;49234;35.600;139.358;2022-08-21T02:08:41;99202.68;;;29.72;48.91
63132;BME280;49234;35.600;139.358;2022-08-21T02:11:10;99203.12;;;30.79;47.71
63132;BME280;49234;35.600;139.358;2022-08-21T02:13:39;99209.04;;;30.20;48.20
63132;BME280;49234;35.600;139.358;2022-08-21T02:16:09;99205.27;;;30.15;46.95
63132;BME280;49234;35.600;139.358;2022-08-21T02:18:38;99200.28;;;29.40;48.18
63132;BME280;49234;35.600;139.358;2022-08-21T02:21:07;99196.97;;;30.35;47.99
63132;BME280;49234;35.600;139.358;2022-08-21T02:23:36;99202.38;;;30.44;47.43
63132;BME280;49234;35.600;139.358;2022-08-21T02:26:07;99205.16;;;30.07;46.35
63132;BME280;49234;35.600;139.358;2022-08-21T02:28:37;99202.72;;;30.04;46.92
63132;BME280;49234;35.600;139.358;2022-08-21T02:31:07;99199.48;;;31.12;46.00
63132;BME280;49234;35.600;139.358;2022-08-21T02:33:36;99197.51;;;30.52;45.94
63132;BME280;49234;35.600;139.358;2022-08-21T02:36:07;99191.87;;;30.78;46.53
63132;BME280;49234;35.600;139.358;2022-08-21T02:38:38;99186.66;;;30.16;46.77
63132;BME280;49234;35.600;139.358;2022-08-21T02:41:12;99186.91;;;30.99;46.07
63132;BME280;49234;35.600;139.358;2022-08-21T02:43:42;99182.88;;;30.48;46.67
63132;BME280;49234;35.600;139.358;2022-08-21T02:46:13;99185.31;;;30.55;46.44
63132;BME280;49234;35.600;139.358;2022-08-21T02:48:43;99180.40;;;30.41;46.59
63132;BME280;49234;35.600;139.358;2022-08-21T02:51:15;99181.04;;;30.01;47.06
63132;BME280;49234;35.600;139.358;2022-08-21T02:53:46;99187.75;;;30.74;46.34
63132;BME280;49234;35.600;139.358;2022-08-21T02:56:18;99185.06;;;30.47;46.81
63132;BME280;49234;35.600;139.358;2022-08-21T02:58:50;99187.33;;;30.63;46.67
63132;BME280;49234;35.600;139.358;2022-08-21T03:01:19;99188.32;;;30.98;45.67
63132;BME280;49234;35.600;139.358;2022-08-21T03:03:48;99184.88;;;30.77;45.75
63132;BME280;49234;35.600;139.358;2022-08-21T03:06:19;99185.97;;;30.96;45.68
63132;BME280;49234;35.600;139.358;2022-08-21T03:08:49;99185.37;;;30.91;46.38
63132;BME280;49234;35.600;139.358;2022-08-21T03:11:18;99182.44;;;31.26;46.01
63132;BME280;49234;35.600;139.358;2022-08-21T03:13:47;99178.65;;;31.26;45.01
63132;BME280;49234;35.600;139.358;2022-08-21T03:16:16;99175.82;;;31.27;45.13
63132;BME280;49234;35.600;139.358;2022-08-21T03:18:45;99178.70;;;30.22;46.84
63132;BME280;49234;35.600;139.358;2022-08-21T03:21:14;99174.29;;;31.46;45.70
63132;BME280;49234;35.600;139.358;2022-08-21T03:23:42;99173.45;;;30.77;45.97
63132;BME280;49234;35.600;139.358;2022-08-21T03:26:11;99171.27;;;30.50;46.55
63132;BME280;49234;35.600;139.358;2022-08-21T03:28:41;99172.14;;;31.01;46.15
63132;BME280;49234;35.600;139.358;2022-08-21T03:31:10;99169.63;;;31.37;45.56
63132;BME280;49234;35.600;139.358;2022-08-21T03:33:39;99170.66;;;31.00;45.84
63132;BME280;49234;35.600;139.358;2022-08-21T03:36:09;99170.01;;;31.44;45.22
63132;BME280;49234;35.600;139.358;2022-08-21T03:38:39;99169.11;;;31.76;44.68
63132;BME280;49234;35.600;139.358;2022-08-21T03:41:09;99171.76;;;31.26;44.95
63132;BME280;49234;35.600;139.358;2022-08-21T03:43:38;99173.51;;;31.05;45.46
63132;BME280;49234;35.600;139.358;2022-08-21T03:46:08;99173.60;;;31.39;45.00
63132;BME280;49234;35.600;139.358;2022-08-21T03:48:38;99171.23;;;31.48;44.80
63132;BME280;49234;35.600;139.358;2022-08-21T03:51:08;99166.27;;;30.70;44.91
63132;BME280;49234;35.600;139.358;2022-08-21T03:53:37;99166.75;;;31.18;43.46
63132;BME280;49234;35.600;139.358;2022-08-21T03:56:07;99166.95;;;31.38;44.30
63132;BME280;49234;35.600;139.358;2022-08-21T03:58:36;99164.24;;;30.71;45.30
63132;BME280;49234;35.600;139.358;2022-08-21T04:01:06;99168.56;;;31.31;44.55
63132;BME280;49234;35.600;139.358;2022-08-21T04:03:36;99168.04;;;31.32;44.86
63132;BME280;49234;35.600;139.358;2022-08-21T04:06:06;99168.45;;;31.24;45.34
63132;BME280;49234;35.600;139.358;2022-08-21T04:08:35;99169.19;;;31.09;44.94
63132;BME280;49234;35.600;139.358;2022-08-21T04:11:06;99164.51;;;31.29;43.81
63132;BME280;49234;35.600;139.358;2022-08-21T04:13:35;99164.00;;;31.11;44.17
63132;BME280;49234;35.600;139.358;2022-08-21T04:16:05;99162.32;;;31.25;43.46
63132;BME280;49234;35.600;139.358;2022-08-21T04:18:34;99163.41;;;31.16;44.95
63132;BME280;49234;35.600;139.358;2022-08-21T04:21:04;99167.74;;;31.74;44.58
63132;BME280;49234;35.600;139.358;2022-08-21T04:23:34;99166.76;;;31.44;43.96
63132;BME280;49234;35.600;139.358;2022-08-21T04:26:04;99168.21;;;31.66;44.47
63132;BME280;49234;35.600;139.358;2022-08-21T04:28:33;99164.88;;;32.09;42.90
63132;BME280;49234;35.600;139.358;2022-08-21T04:31:03;99161.61;;;32.10;43.34
63132;BME280;49234;35.600;139.358;2022-08-21T04:33:33;99154.46;;;31.10;44.21
63132;BME280;49234;35.600;139.358;2022-08-21T04:36:02;99157.88;;;31.48;44.92
63132;BME280;49234;35.600;139.358;2022-08-21T04:38:32;99156.75;;;31.75;44.62
63132;BME280;49234;35.600;139.358;2022-08-21T04:41:02;99157.13;;;31.34;44.85
63132;BME280;49234;35.600;139.358;2022-08-21T04:43:32;99157.22;;;30.94;44.25
63132;BME280;49234;35.600;139.358;2022-08-21T04:46:02;99158.58;;;31.23;44.45
63132;BME280;49234;35.600;139.358;2022-08-21T04:48:31;99156.56;;;31.81;43.22
63132;BME280;49234;35.600;139.358;2022-08-21T04:51:06;99156.37;;;32.12;43.85
63132;BME280;49234;35.600;139.358;2022-08-21T04:53:39;99152.38;;;31.41;43.71
63132;BME280;49234;35.600;139.358;2022-08-21T04:56:11;99155.83;;;32.27;43.37
63132;BME280;49234;35.600;139.358;2022-08-21T04:58:41;99157.95;;;32.09;43.41
63132;BME280;49234;35.600;139.358;2022-08-21T05:01:14;99155.32;;;31.73;43.62
63132;BME280;49234;35.600;139.358;2022-08-21T05:03:44;99156.36;;;31.85;43.85
63132;BME280;49234;35.600;139.358;2022-08-21T05:06:16;99149.51;;;30.95;45.25
63132;BME280;49234;35.600;139.358;2022-08-21T05:08:47;99153.52;;;32.15;44.23
63132;BME280;49234;35.600;139.358;2022-08-21T05:11:18;99147.88;;;31.35;45.73
63132;BME280;49234;35.600;139.358;2022-08-21T05:13:47;99150.95;;;31.59;44.92
63132;BME280;49234;35.600;139.358;2022-08-21T05:16:16;99153.91;;;31.77;44.86
63132;BME280;49234;35.600;139.358;2022-08-21T05:18:45;99157.28;;;31.52;44.62
63132;BME280;49234;35.600;139.358;2022-08-21T05:21:14;99156.28;;;31.44;45.54
63132;BME280;49234;35.600;139.358;2022-08-21T05:23:44;99156.15;;;32.00;44.61
63132;BME280;49234;35.600;139.358;2022-08-21T05:26:13;99153.73;;;32.05;44.11
63132;BME280;49234;35.600;139.358;2022-08-21T05:28:42;99153.68;;;33.40;42.52
63132;BME280;49234;35.600;139.358;2022-08-21T05:31:11;99153.47;;;32.09;44.29
63132;BME280;49234;35.600;139.358;2022-08-21T05:33:40;99152.70;;;32.02;43.86
63132;BME280;49234;35.600;139.358;2022-08-21T05:36:09;99148.14;;;32.61;42.91
63132;BME280;49234;35.600;139.358;2022-08-21T05:38:38;99151.07;;;31.39;44.25
63132;BME280;49234;35.600;139.358;2022-08-21T05:41:07;99155.17;;;31.39;44.41
63132;BME280;49234;35.600;139.358;2022-08-21T05:43:36;99161.97;;;31.47;44.87
63132;BME280;49234;35.600;139.358;2022-08-21T05:46:06;99160.63;;;31.95;43.11
63132;BME280;49234;35.600;139.358;2022-08-21T05:48:36;99159.30;;;32.05;43.26
63132;BME280;49234;35.600;139.358;2022-08-21T05:51:07;99156.94;;;32.17;42.14
63132;BME280;49234;35.600;139.358;2022-08-21T05:53:44;99156.06;;;33.11;41.20
63132;BME280;49234;35.600;139.358;2022-08-21T05:56:14;99161.64;;;32.16;41.84
63132;BME280;49234;35.600;139.358;2022-08-21T05:58:44;99163.70;;;32.13;41.96
63132;BME280;49234;35.600;139.358;2022-08-21T06:01:13;99161.89;;;31.60;43.48
63132;BME280;49234;35.600;139.358;2022-08-21T06:03:42;99169.20;;;32.63;42.40
63132;BME280;49234;35.600;139.358;2022-08-21T06:06:11;99165.79;;;32.16;42.34
63132;BME280;49234;35.600;139.358;2022-08-21T06:08:41;99165.68;;;31.96;42.61
63132;BME280;49234;35.600;139.358;2022-08-21T06:11:10;99164.41;;;33.06;40.92
63132;BME280;49234;35.600;139.358;2022-08-21T06:13:39;99171.28;;;31.59;42.61
63132;BME280;49234;35.600;139.358;2022-08-21T06:16:10;99170.81;;;32.15;42.02
63132;BME280;49234;35.600;139.358;2022-08-21T06:18:41;99168.54;;;31.42;43.50
63132;BME280;49234;35.600;139.358;2022-08-21T06:21:10;99172.13;;;31.66;42.86
63132;BME280;49234;35.600;139.358;2022-08-21T06:23:40;99166.53;;;31.90;42.26
63132;BME280;49234;35.600;139.358;2022-08-21T06:26:10;99159.60;;;31.48;43.30
63132;BME280;49234;35.600;139.358;2022-08-21T06:28:41;99152.38;;;31.51;43.22
63132;BME280;49234;35.600;139.358;2022-08-21T06:31:13;99155.15;;;32.88;40.99
63132;BME280;49234;35.600;139.358;2022-08-21T06:33:44;99159.57;;;31.99;42.20
63132;BME280;49234;35.600;139.358;2022-08-21T06:36:14;99160.88;;;31.79;42.81
63132;BME280;49234;35.600;139.358;2022-08-21T06:38:43;99160.54;;;31.28;43.28
63132;BME280;49234;35.600;139.358;2022-08-21T06:41:12;99160.77;;;32.01;41.18
63132;BME280;49234;35.600;139.358;2022-08-21T06:43:42;99165.55;;;31.75;41.80
63132;BME280;49234;35.600;139.358;2022-08-21T06:46:11;99164.69;;;31.71;41.58
63132;BME280;49234;35.600;139.358;2022-08-21T06:48:40;99162.85;;;31.83;41.79
63132;BME280;49234;35.600;139.358;2022-08-21T06:51:09;99162.01;;;31.65;42.27
63132;BME280;49234;35.600;139.358;2022-08-21T06:53:38;99162.64;;;31.86;40.41
63132;BME280;49234;35.600;139.358;2022-08-21T06:56:08;99161.88;;;31.96;40.37
63132;BME280;49234;35.600;139.358;2022-08-21T06:58:39;99157.76;;;31.10;41.95
63132;BME280;49234;35.600;139.358;2022-08-21T07:01:10;99164.15;;;31.25;42.12
63132;BME280;49234;35.600;139.358;2022-08-21T07:03:41;99164.76;;;31.42;42.04
63132;BME280;49234;35.600;139.358;2022-08-21T07:06:11;99165.15;;;31.75;41.98
63132;BME280;49234;35.600;139.358;2022-08-21T07:08:40;99158.14;;;31.24;41.38
63132;BME280;49234;35.600;139.358;2022-08-21T07:11:13;99157.94;;;32.13;41.16
63132;BME280;49234;35.600;139.358;2022-08-21T07:13:43;99160.93;;;31.60;41.15
63132;BME280;49234;35.600;139.358;2022-08-21T07:16:12;99161.64;;;32.02;40.53
63132;BME280;49234;35.600;139.358;2022-08-21T07:18:41;99159.01;;;31.53;40.78
63132;BME280;49234;35.600;139.358;2022-08-21T07:21:10;99165.72;;;31.47;41.16
63132;BME280;49234;35.600;139.358;2022-08-21T07:23:42;99170.81;;;31.01;40.67
63132;BME280;49234;35.600;139.358;2022-08-21T07:26:13;99175.79;;;31.05;41.51
63132;BME280;49234;35.600;139.358;2022-08-21T07:28:42;99181.85;;;31.24;41.39
63132;BME280;49234;35.600;139.358;2022-08-21T07:31:14;99181.93;;;31.17;40.88
63132;BME280;49234;35.600;139.358;2022-08-21T07:33:45;99185.53;;;31.84;39.61
63132;BME280;49234;35.600;139.358;2022-08-21T07:36:14;99188.92;;;31.32;40.91
63132;BME280;49234;35.600;139.358;2022-08-21T07:38:44;99196.49;;;31.44;39.80
63132;BME280;49234;35.600;139.358;2022-08-21T07:41:17;99196.93;;;31.39;40.97
63132;BME280;49234;35.600;139.358;2022-08-21T07:43:46;99195.29;;;31.58;39.93
63132;BME280;49234;35.600;139.358;2022-08-21T07:46:16;99195.89;;;31.96;38.98
63132;BME280;49234;35.600;139.358;2022-08-21T07:48:45;99199.23;;;31.71;38.91
63132;BME280;49234;35.600;139.358;2022-08-21T07:51:16;99196.89;;;31.89;38.67
63132;BME280;49234;35.600;139.358;2022-08-21T07:53:50;99200.00;;;31.85;39.58
63132;BME280;49234;35.600;139.358;2022-08-21T07:56:19;99205.37;;;31.42;39.66
63132;BME280;49234;35.600;139.358;2022-08-21T07:58:48;99211.12;;;31.44;40.08
63132;BME280;49234;35.600;139.358;2022-08-21T08:01:18;99218.51;;;31.28;40.39
63132;BME280;49234;35.600;139.358;2022-08-21T08:03:47;99221.41;;;31.29;41.09
63132;BME280;49234;35.600;139.358;2022-08-21T08:06:17;99222.55;;;31.58;40.38
63132;BME280;49234;35.600;139.358;2022-08-21T08:08:47;99224.19;;;31.39;39.72
63132;BME280;49234;35.600;139.358;2022-08-21T08:11:16;99229.78;;;31.22;40.62
63132;BME280;49234;35.600;139.358;2022-08-21T08:13:48;99229.28;;;30.84;40.84
63132;BME280;49234;35.600;139.358;2022-08-21T08:16:18;99234.68;;;30.99;40.96
63132;BME280;49234;35.600;139.358;2022-08-21T08:18:47;99233.65;;;30.76;40.89
63132;BME280;49234;35.600;139.358;2022-08-21T08:21:16;99236.32;;;31.09;41.02
63132;BME280;49234;35.600;139.358;2022-08-21T08:23:45;99240.90;;;31.16;40.19
63132;BME280;49234;35.600;139.358;2022-08-21T08:26:15;99244.48;;;31.26;40.72
63132;BME280;49234;35.600;139.358;2022-08-21T08:28:44;99246.22;;;30.94;40.29
63132;BME280;49234;35.600;139.358;2022-08-21T08:31:13;99245.20;;;30.85;40.42
63132;BME280;49234;35.600;139.358;2022-08-21T08:33:43;99243.77;;;30.59;41.18
63132;BME280;49234;35.600;139.358;2022-08-21T08:36:16;99248.09;;;31.30;40.13
63132;BME280;49234;35.600;139.358;2022-08-21T08:38:45;99252.78;;;30.94;40.92
63132;BME280;49234;35.600;139.358;2022-08-21T08:41:17;99255.44;;;31.34;40.37
63132;BME280;49234;35.600;139.358;2022-08-21T08:43:53;99261.97;;;30.86;40.67
63132;BME280;49234;35.600;139.358;2022-08-21T08:46:29;99264.85;;;31.38;40.61
63132;BME280;49234;35.600;139.358;2022-08-21T08:49:05;99259.25;;;31.01;41.66
63132;BME280;49234;35.600;139.358;2022-08-21T08:51:42;99258.69;;;30.98;41.72
63132;BME280;49234;35.600;139.358;2022-08-21T08:54:18;99252.60;;;30.99;41.22
63132;BME280;49234;35.600;139.358;2022-08-21T08:56:47;99252.60;;;30.51;41.15
63132;BME280;49234;35.600;139.358;2022-08-21T08:59:20;99259.73;;;31.10;40.92
63132;BME280;49234;35.600;139.358;2022-08-21T09:01:51;99262.64;;;30.94;40.63
63132;BME280;49234;35.600;139.358;2022-08-21T09:04:29;99261.08;;;30.70;40.80
63132;BME280;49234;35.600;139.358;2022-08-21T09:07:16;99255.31;;;30.71;41.24
63132;BME280;49234;35.600;139.358;2022-08-21T09:10:04;99257.85;;;30.95;40.98
63132;BME280;49234;35.600;139.358;2022-08-21T09:12:43;99266.76;;;31.13;40.11
63132;BME280;49234;35.600;139.358;2022-08-21T09:15:22;99272.48;;;30.88;41.15
63132;BME280;49234;35.600;139.358;2022-08-21T09:18:13;99276.92;;;30.72;41.17
63132;BME280;49234;35.600;139.358;2022-08-21T09:21:02;99280.02;;;30.95;40.40
63132;BME280;49234;35.600;139.358;2022-08-21T09:23:42;99283.11;;;31.01;40.98
63132;BME280;49234;35.600;139.358;2022-08-21T09:26:14;99285.77;;;30.56;41.81
63132;BME280;49234;35.600;139.358;2022-08-21T09:28:46;99283.82;;;30.60;41.47
63132;BME280;49234;35.600;139.358;2022-08-21T09:31:24;99286.70;;;30.38;42.27
63132;BME280;49234;35.600;139.358;2022-08-21T09:33:59;99288.80;;;30.64;41.47
63132;BME280;49234;35.600;139.358;2022-08-21T09:36:35;99293.16;;;30.74;41.40
63132;BME280;49234;35.600;139.358;2022-08-21T09:39:06;99301.07;;;30.58;41.68
63132;BME280;49234;35.600;139.358;2022-08-21T09:41:36;99311.73;;;30.52;41.68
63132;BME280;49234;35.600;139.358;2022-08-21T09:44:08;99318.39;;;30.36;42.05
63132;BME280;49234;35.600;139.358;2022-08-21T09:46:37;99320.90;;;30.27;42.43
63132;BME280;49234;35.600;139.358;2022-08-21T09:49:07;99323.55;;;30.41;42.01
63132;BME280;49234;35.600;139.358;2022-08-21T09:51:37;99321.00;;;30.05;43.34
63132;BME280;49234;35.600;139.358;2022-08-21T09:54:15;99324.58;;;29.96;43.44
63132;BME280;49234;35.600;139.358;2022-08-21T09:56:56;99330.48;;;30.61;43.32
63132;BME280;49234;35.600;139.358;2022-08-21T09:59:28;99340.53;;;29.89;44.12
63132;BME280;49234;35.600;139.358;2022-08-21T10:02:00;99347.68;;;30.38;45.23
63132;BME280;49234;35.600;139.358;2022-08-21T10:04:31;99348.84;;;29.70;45.36
63132;BME280;49234;35.600;139.358;2022-08-21T10:07:13;99352.80;;;30.20;44.85
63132;BME280;49234;35.600;139.358;2022-08-21T10:09:43;99358.11;;;30.00;45.30
63132;BME280;49234;35.600;139.358;2022-08-21T10:12:15;99360.14;;;29.78;45.30
63132;BME280;49234;35.600;139.358;2022-08-21T10:14:54;99359.80;;;29.89;45.27
63132;BME280;49234;35.600;139.358;2022-08-21T10:17:30;99359.94;;;29.73;44.78
63132;BME280;49234;35.600;139.358;2022-08-21T10:20:06;99354.46;;;30.01;44.88
63132;BME280;49234;35.600;139.358;2022-08-21T10:22:45;99346.41;;;30.04;44.86
63132;BME280;49234;35.600;139.358;2022-08-21T10:25:19;99347.36;;;29.92;44.92
63132;BME280;49234;35.600;139.358;2022-08-21T10:27:58;99355.07;;;29.66;44.90
63132;BME280;49234;35.600;139.358;2022-08-21T10:30:39;99361.34;;;29.86;45.01
63132;BME280;49234;35.600;139.358;2022-08-21T10:33:18;99359.10;;;29.93;44.91
63132;BME280;49234;35.600;139.358;2022-08-21T10:35:55;99358.06;;;29.98;45.08
63132;BME280;49234;35.600;139.358;2022-08-21T10:39:35;99367.03;;;30.15;44.63
63132;BME280;49234;35.600;139.358;2022-08-21T10:42:17;99375.83;;;29.36;46.41
63132;BME280;49234;35.600;139.358;2022-08-21T10:45:07;99376.34;;;29.03;47.71
63132;BME280;49234;35.600;139.358;2022-08-21T10:47:42;99373.39;;;29.62;46.02
63132;BME280;49234;35.600;139.358;2022-08-21T10:50:22;99369.92;;;29.81;46.11
63132;BME280;49234;35.600;139.358;2022-08-21T10:53:05;99369.53;;;29.69;46.09
63132;BME280;49234;35.600;139.358;2022-08-21T10:55:41;99372.48;;;30.20;44.89
63132;BME280;49234;35.600;139.358;2022-08-21T10:58:17;99381.40;;;30.67;44.96
63132;BME280;49234;35.600;139.358;2022-08-21T11:00:49;99384.72;;;29.78;45.91
63132;BME280;49234;35.600;139.358;2022-08-21T11:03:25;99390.02;;;29.60;46.53
63132;BME280;49234;35.600;139.358;2022-08-21T11:06:02;99396.06;;;29.05;46.94
63132;BME280;49234;35.600;139.358;2022-08-21T11:08:39;99398.70;;;29.67;46.34
63132;BME280;49234;35.600;139.358;2022-08-21T11:11:12;99395.16;;;29.89;46.15
63132;BME280;49234;35.600;139.358;2022-08-21T11:13:47;99390.64;;;29.67;46.49
63132;BME280;49234;35.600;139.358;2022-08-21T11:16:21;99383.23;;;29.69;46.62
63132;BME280;49234;35.600;139.358;2022-08-21T11:19:00;99381.22;;;29.06;47.17
63132;BME280;49234;35.600;139.358;2022-08-21T11:21:37;99382.77;;;29.76;46.44
63132;BME280;49234;35.600;139.358;2022-08-21T11:24:19;99380.42;;;30.30;45.37
63132;BME280;49234;35.600;139.358;2022-08-21T11:26:59;99380.14;;;29.54;46.12
63132;BME280;49234;35.600;139.358;2022-08-21T11:29:34;99383.72;;;29.05;46.38
63132;BME280;49234;35.600;139.358;2022-08-21T11:32:24;99390.85;;;29.44;46.31
63132;BME280;49234;35.600;139.358;2022-08-21T11:35:03;99393.19;;;29.26;46.74
63132;BME280;49234;35.600;139.358;2022-08-21T11:37:51;99393.84;;;29.12;47.25
63132;BME280;49234;35.600;139.358;2022-08-21T11:40:42;99401.06;;;29.44;46.57
63132;BME280;49234;35.600;139.358;2022-08-21T11:43:18;99398.69;;;29.33;46.79
63132;BME280;49234;35.600;139.358;2022-08-21T11:45:53;99391.19;;;29.52;47.08
63132;BME280;49234;35.600;139.358;2022-08-21T11:48:36;99387.77;;;29.82;46.50
63132;BME280;49234;35.600;139.358;2022-08-21T11:51:13;99392.46;;;29.39;46.79
63132;BME280;49234;35.600;139.358;2022-08-21T11:53:47;99400.76;;;29.18;47.06
63132;BME280;49234;35.600;139.358;2022-08-21T11:56:22;99408.59;;;29.25;47.36
63132;BME280;49234;35.600;139.358;2022-08-21T11:58:56;99411.15;;;29.29;47.21
63132;BME280;49234;35.600;139.358;2022-08-21T12:01:30;99407.22;;;29.70;46.92
63132;BME280;49234;35.600;139.358;2022-08-21T12:04:06;99407.68;;;29.94;46.28
63132;BME280;49234;35.600;139.358;2022-08-21T12:06:38;99408.83;;;28.88;47.69
63132;BME280;49234;35.600;139.358;2022-08-21T12:09:09;99408.57;;;29.74;46.27
63132;BME280;49234;35.600;139.358;2022-08-21T12:11:48;99406.12;;;29.12;47.31
63132;BME280;49234;35.600;139.358;2022-08-21T12:14:19;99409.72;;;28.86;47.81
63132;BME280;49234;35.600;139.358;2022-08-21T12:16:50;99404.02;;;29.63;46.92
63132;BME280;49234;35.600;139.358;2022-08-21T12:19:30;99403.18;;;29.38;46.81
63132;BME280;49234;35.600;139.358;2022-08-21T12:22:10;99401.73;;;29.59;46.56
63132;BME280;49234;35.600;139.358;2022-08-21T12:24:42;99397.92;;;29.27;47.48
63132;BME280;49234;35.600;139.358;2022-08-21T12:27:23;99399.12;;;29.70;47.28
63132;BME280;49234;35.600;139.358;2022-08-21T12:29:59;99399.88;;;29.11;47.77
63132;BME280;49234;35.600;139.358;2022-08-21T12:32:30;99399.42;;;28.90;47.98
63132;BME280;49234;35.600;139.358;2022-08-21T12:35:14;99401.45;;;28.76;46.96
63132;BME280;49234;35.600;139.358;2022-08-21T12:37:47;99403.58;;;28.56;48.06
63132;BME280;49234;35.600;139.358;2022-08-21T12:40:21;99411.86;;;28.98;48.24
63132;BME280;49234;35.600;139.358;2022-08-21T12:42:53;99419.42;;;28.99;47.29
63132;BME280;49234;35.600;139.358;2022-08-21T12:45:29;99416.09;;;29.48;46.58
63132;BME280;49234;35.600;139.358;2022-08-21T12:48:04;99418.00;;;29.06;47.29
63132;BME280;49234;35.600;139.358;2022-08-21T12:50:38;99415.15;;;29.34;47.36
63132;BME280;49234;35.600;139.358;2022-08-21T12:53:12;99414.66;;;29.13;47.54
63132;BME280;49234;35.600;139.358;2022-08-21T12:55:44;99410.73;;;28.82;47.98
63132;BME280;49234;35.600;139.358;2022-08-21T12:58:19;99417.00;;;29.02;47.59
63132;BME280;49234;35.600;139.358;2022-08-21T13:00:52;99420.99;;;28.75;48.11
63132;BME280;49234;35.600;139.358;2022-08-21T13:03:23;99423.84;;;28.53;48.16
63132;BME280;49234;35.600;139.358;2022-08-21T13:05:53;99424.75;;;29.20;46.59